createdAt,value
2022-08-25T00:00:34.798Z,11.05
2022-08-25T00:03:01.081Z,9.52
2022-08-25T00:05:29.306Z,8.05
2022-08-25T00:07:58.985Z,11.70
2022-08-25T00:10:25.855Z,9.27
2022-08-25T00:12:53.057Z,11.20
2022-08-25T00:15:19.451Z,13.60
2022-08-25T00:17:45.730Z,8.40
2022-08-25T00:20:12.816Z,13.25
2022-08-25T00:22:39.420Z,10.48
2022-08-25T00:25:05.924Z,9.82
2022-08-25T00:27:32.173Z,9.32
2022-08-25T00:29:58.424Z,12.50
2022-08-25T00:32:25.484Z,14.98
2022-08-25T00:34:51.956Z,12.25
2022-08-25T00:37:18.400Z,11.35
2022-08-25T00:39:44.975Z,7.93
2022-08-25T00:42:16.029Z,12.23
2022-08-25T00:44:43.866Z,10.80
2022-08-25T00:47:10.296Z,9.68
2022-08-25T00:49:40.147Z,9.50
2022-08-25T00:52:08.929Z,7.22
2022-08-25T00:54:38.993Z,7.07
2022-08-25T00:57:06.479Z,7.43
2022-08-25T00:59:32.770Z,9.93
2022-08-25T01:01:59.511Z,15.27
2022-08-25T01:04:26.113Z,9.52
2022-08-25T01:06:52.771Z,9.60
2022-08-25T01:09:19.670Z,8.25
2022-08-25T01:11:46.582Z,8.25
2022-08-25T01:14:17.035Z,10.32
2022-08-25T01:16:44.357Z,8.00
2022-08-25T01:19:15.520Z,13.85
2022-08-25T01:21:48.524Z,9.93
2022-08-25T01:24:21.250Z,10.27
2022-08-25T01:26:47.630Z,16.42
2022-08-25T01:29:25.400Z,10.65
2022-08-25T01:32:02.658Z,13.55
2022-08-25T01:34:30.149Z,12.65
2022-08-25T01:36:57.071Z,12.27
2022-08-25T01:39:24.188Z,16.98
2022-08-25T01:41:59.322Z,13.18
2022-08-25T01:44:26.213Z,12.32
2022-08-25T01:46:53.308Z,17.88
2022-08-25T01:49:19.562Z,13.88
2022-08-25T01:51:52.182Z,13.90
2022-08-25T01:54:18.634Z,27.10
2022-08-25T01:56:45.240Z,21.95
2022-08-25T01:59:14.381Z,14.00
2022-08-25T02:01:47.960Z,10.98
2022-08-25T02:04:14.247Z,10.95
2022-08-25T02:06:42.415Z,15.30
2022-08-25T02:09:11.207Z,10.32
2022-08-25T02:11:38.214Z,7.97
2022-08-25T02:14:04.887Z,7.45
2022-08-25T02:16:32.382Z,10.05
2022-08-25T02:18:59.301Z,13.00
2022-08-25T02:21:26.163Z,18.83
2022-08-25T02:23:53.218Z,14.88
2022-08-25T02:26:19.953Z,7.07
2022-08-25T02:28:47.223Z,7.80
2022-08-25T02:31:14.168Z,7.40
2022-08-25T02:33:40.501Z,6.43
2022-08-25T02:36:07.483Z,6.50
2022-08-25T02:38:33.937Z,10.13
2022-08-25T02:41:00.835Z,7.20
2022-08-25T02:43:27.860Z,5.95
2022-08-25T02:45:55.590Z,6.45
2022-08-25T02:48:21.883Z,11.23
2022-08-25T02:50:49.395Z,6.60
2022-08-25T02:53:15.645Z,9.40
2022-08-25T02:55:41.968Z,6.25
2022-08-25T02:58:09.038Z,7.85
2022-08-25T03:00:35.336Z,19.58
2022-08-25T03:03:02.469Z,6.65
2022-08-25T03:05:28.730Z,17.67
2022-08-25T03:07:55.234Z,9.88
2022-08-25T03:10:21.663Z,12.45
2022-08-25T03:12:47.928Z,9.90
2022-08-25T03:15:16.684Z,9.45
2022-08-25T03:17:44.208Z,9.68
2022-08-25T03:20:12.185Z,10.23
2022-08-25T03:22:38.531Z,10.35
2022-08-25T03:25:24.350Z,13.80
2022-08-25T03:27:51.620Z,13.85
2022-08-25T03:30:18.110Z,11.27
2022-08-25T03:32:44.338Z,11.10
2022-08-25T03:35:10.685Z,12.23
2022-08-25T03:37:37.139Z,12.52
2022-08-25T03:40:05.633Z,13.30
2022-08-25T03:42:32.136Z,11.85
2022-08-25T03:44:59.146Z,14.98
2022-08-25T03:47:26.387Z,11.50
2022-08-25T03:49:52.662Z,12.25
2022-08-25T03:52:18.902Z,16.95
2022-08-25T03:54:45.840Z,14.73
2022-08-25T03:57:12.100Z,13.30
2022-08-25T03:59:38.814Z,12.13
2022-08-25T04:02:05.416Z,13.60
2022-08-25T04:04:31.960Z,22.58
2022-08-25T04:06:58.626Z,15.50
2022-08-25T04:09:26.105Z,20.65
2022-08-25T04:11:53.037Z,13.52
2022-08-25T04:14:21.019Z,15.48
2022-08-25T04:16:47.414Z,15.70
2022-08-25T04:19:13.760Z,14.52
2022-08-25T04:21:40.619Z,23.52
2022-08-25T04:24:07.784Z,21.63
2022-08-25T04:26:35.803Z,18.60
2022-08-25T04:29:03.152Z,15.38
2022-08-25T04:31:30.580Z,18.38
2022-08-25T04:33:57.187Z,17.05
2022-08-25T19:03:10.600Z,12.25
2022-08-25T19:05:41.324Z,13.15
2022-08-25T19:08:12.574Z,13.52
2022-08-25T19:10:41.669Z,11.50
2022-08-25T19:13:08.578Z,13.48
2022-08-25T19:15:36.083Z,14.30
2022-08-25T19:18:03.603Z,16.75
2022-08-25T19:20:33.834Z,15.32
2022-08-25T19:23:00.571Z,12.75
2022-08-25T19:25:27.114Z,15.93
2022-08-25T19:28:00.463Z,13.30
2022-08-25T19:30:28.442Z,14.25
2022-08-25T19:32:56.230Z,13.75
2022-08-25T19:35:31.923Z,18.88
2022-08-25T19:37:59.906Z,17.60
2022-08-25T19:40:27.980Z,19.05
2022-08-25T19:42:54.686Z,17.10
2022-08-25T19:45:22.538Z,19.48
2022-08-25T19:47:49.388Z,22.85
2022-08-25T19:50:17.689Z,21.67
2022-08-25T19:52:44.835Z,16.95
2022-08-25T19:55:11.182Z,17.73
2022-08-25T19:57:42.833Z,24.88
2022-08-25T20:00:18.380Z,19.08
2022-08-25T20:02:45.416Z,20.27
2022-08-25T20:05:14.024Z,20.88
2022-08-25T20:07:41.322Z,20.23
2022-08-25T20:10:09.496Z,23.08
2022-08-25T20:12:40.711Z,20.95
2022-08-25T20:15:07.911Z,29.58
2022-08-25T20:17:34.215Z,28.48
2022-08-25T20:20:01.758Z,33.97
2022-08-25T20:22:31.763Z,39.08
2022-08-25T20:24:59.718Z,33.25
2022-08-25T20:27:28.206Z,34.05
2022-08-25T20:29:54.513Z,32.88
2022-08-25T20:32:20.938Z,29.25
2022-08-25T20:34:48.257Z,34.45
2022-08-25T20:37:14.668Z,34.42
2022-08-25T20:39:41.333Z,31.77
2022-08-25T20:42:07.815Z,27.02
2022-08-25T20:44:41.427Z,31.00
2022-08-25T20:47:10.229Z,27.17
2022-08-25T20:49:37.808Z,24.35
2022-08-25T20:52:04.802Z,22.30
2022-08-25T20:54:31.154Z,25.98
2022-08-25T20:56:57.739Z,26.20
2022-08-25T20:59:25.089Z,25.75
2022-08-25T21:01:51.608Z,21.25
2022-08-25T21:04:18.827Z,21.40
2022-08-25T21:06:46.640Z,23.80
2022-08-25T21:09:15.797Z,25.15
2022-08-25T21:11:42.378Z,21.63
2022-08-25T21:14:09.619Z,28.63
2022-08-25T21:16:37.728Z,20.63
2022-08-25T21:19:04.463Z,23.92
2022-08-25T21:21:37.452Z,22.38
2022-08-25T21:24:05.282Z,28.55
2022-08-25T21:26:35.243Z,21.52
2022-08-25T21:29:03.267Z,22.98
2022-08-25T21:31:30.762Z,20.08
2022-08-25T21:33:57.930Z,19.35
2022-08-25T21:36:24.983Z,19.85
2022-08-25T21:38:51.882Z,25.30
2022-08-25T21:41:20.677Z,24.13
2022-08-25T21:43:47.909Z,25.15
2022-08-25T21:46:15.627Z,21.98
2022-08-25T21:48:42.003Z,20.67
2022-08-25T21:51:09.633Z,25.48
2022-08-25T21:53:36.154Z,26.23
2022-08-25T21:56:06.759Z,24.00
2022-08-25T21:58:33.951Z,21.20
2022-08-25T22:01:12.089Z,20.23
2022-08-25T22:03:38.966Z,20.80
2022-08-25T22:06:06.604Z,18.83
2022-08-25T22:08:33.905Z,19.35
2022-08-25T22:11:00.575Z,17.45
2022-08-25T22:13:27.484Z,18.77
2022-08-25T22:15:54.320Z,19.63
2022-08-25T22:18:21.315Z,18.63
2022-08-25T22:20:48.457Z,16.88
2022-08-25T22:23:20.456Z,20.05
2022-08-25T22:25:47.540Z,15.88
2022-08-25T22:28:15.687Z,19.33
2022-08-25T22:30:42.669Z,16.48
2022-08-25T22:33:09.178Z,20.33
2022-08-25T22:35:35.804Z,15.65
2022-08-25T22:38:02.679Z,16.98
2022-08-25T22:40:29.546Z,14.35
2022-08-25T22:42:55.795Z,18.13
2022-08-25T22:45:22.023Z,19.75
2022-08-25T22:47:52.065Z,13.32
2022-08-25T22:50:19.601Z,15.43
2022-08-25T22:52:46.446Z,18.00
2022-08-25T22:55:14.185Z,16.17
2022-08-25T22:57:42.857Z,14.25
2022-08-25T23:00:12.861Z,15.85
2022-08-25T23:02:40.224Z,10.52
2022-08-25T23:05:06.835Z,11.77
2022-08-25T23:07:34.790Z,14.30
2022-08-25T23:10:03.193Z,14.02
2022-08-25T23:12:29.998Z,12.60
2022-08-25T23:14:56.305Z,11.23
2022-08-25T23:17:22.598Z,13.98
2022-08-25T23:19:48.923Z,14.18
2022-08-25T23:22:17.301Z,10.40
2022-08-25T23:24:44.725Z,14.23
2022-08-25T23:27:14.409Z,7.97
2022-08-25T23:29:43.089Z,15.87
2022-08-25T23:32:10.399Z,9.60
2022-08-25T23:34:42.808Z,9.50
2022-08-25T23:37:13.154Z,8.18
2022-08-25T23:39:40.695Z,11.15
2022-08-25T23:42:08.326Z,9.80
2022-08-25T23:44:36.559Z,12.60
2022-08-25T23:47:03.683Z,10.73
2022-08-25T23:49:30.452Z,15.48
2022-08-25T23:51:56.716Z,9.57
2022-08-25T23:54:22.985Z,10.43
2022-08-25T23:56:57.751Z,11.55
2022-08-25T23:59:25.545Z,9.05
